sensor_id;sensor_type;location;lat;lon;timestamp;temperature;humidity
37240;DHT22;23130;48.760;9.178;2023-05-02T00:00:12;9.30;99.90
37240;DHT22;23130;48.760;9.178;2023-05-02T00:02:38;9.30;99.90
37240;DHT22;23130;48.760;9.178;2023-05-02T00:05:04;9.30;99.90
37240;DHT22;23130;48.760;9.178;2023-05-02T00:07:31;9.30;99.90
37240;DHT22;23130;48.760;9.178;2023-05-02T00:09:57;9.30;99.90
37240;DHT22;23130;48.760;9.178;2023-05-02T00:12:22;9.20;99.90
37240;DHT22;23130;48.760;9.178;2023-05-02T00:14:48;9.20;99.90
37240;DHT22;23130;48.760;9.178;2023-05-02T00:17:18;9.10;99.90
37240;DHT22;23130;48.760;9.178;2023-05-02T00:19:43;9.00;99.90
37240;DHT22;23130;48.760;9.178;2023-05-02T00:22:09;9.00;99.90
37240;DHT22;23130;48.760;9.178;2023-05-02T00:24:35;8.90;99.90
37240;DHT22;23130;48.760;9.178;2023-05-02T00:27:01;8.80;99.90
37240;DHT22;23130;48.760;9.178;2023-05-02T00:29:26;8.70;99.90
37240;DHT22;23130;48.760;9.178;2023-05-02T00:31:52;8.70;99.90
37240;DHT22;23130;48.760;9.178;2023-05-02T00:34:17;8.60;99.90
37240;DHT22;23130;48.760;9.178;2023-05-02T00:36:43;8.50;99.90
37240;DHT22;23130;48.760;9.178;2023-05-02T00:39:08;8.50;99.90
37240;DHT22;23130;48.760;9.178;2023-05-02T00:41:35;8.40;99.90
37240;DHT22;23130;48.760;9.178;2023-05-02T00:44:00;8.40;99.90
37240;DHT22;23130;48.760;9.178;2023-05-02T00:46:26;8.40;99.90
37240;DHT22;23130;48.760;9.178;2023-05-02T00:48:52;8.40;99.90
37240;DHT22;23130;48.760;9.178;2023-05-02T00:51:18;8.40;99.90
37240;DHT22;23130;48.760;9.178;2023-05-02T00:53:44;8.50;99.90
37240;DHT22;23130;48.760;9.178;2023-05-02T00:56:10;8.50;99.90
37240;DHT22;23130;48.760;9.178;2023-05-02T00:58:37;8.60;99.90
37240;DHT22;23130;48.760;9.178;2023-05-02T01:04:00;8.70;99.90
37240;DHT22;23130;48.760;9.178;2023-05-02T01:12:09;8.90;99.90
37240;DHT22;23130;48.760;9.178;2023-05-02T01:14:41;9.00;99.90
37240;DHT22;23130;48.760;9.178;2023-05-02T01:17:10;9.00;99.90
37240;DHT22;23130;48.760;9.178;2023-05-02T01:19:42;9.10;99.90
37240;DHT22;23130;48.760;9.178;2023-05-02T01:22:10;9.00;99.90
37240;DHT22;23130;48.760;9.178;2023-05-02T01:30:26;9.00;99.90
37240;DHT22;23130;48.760;9.178;2023-05-02T01:32:54;9.00;99.90
37240;DHT22;23130;48.760;9.178;2023-05-02T01:35:21;9.00;99.90
37240;DHT22;23130;48.760;9.178;2023-05-02T01:37:48;9.00;99.90
37240;DHT22;23130;48.760;9.178;2023-05-02T01:40:18;9.10;99.90
37240;DHT22;23130;48.760;9.178;2023-05-02T01:42:47;9.20;99.90
37240;DHT22;23130;48.760;9.178;2023-05-02T01:45:14;9.30;99.90
37240;DHT22;23130;48.760;9.178;2023-05-02T01:47:42;9.20;99.90
37240;DHT22;23130;48.760;9.178;2023-05-02T01:50:10;9.20;99.90
37240;DHT22;23130;48.760;9.178;2023-05-02T01:52:38;9.20;99.90
37240;DHT22;23130;48.760;9.178;2023-05-02T01:55:08;9.20;99.90
37240;DHT22;23130;48.760;9.178;2023-05-02T01:57:35;9.10;99.90
37240;DHT22;23130;48.760;9.178;2023-05-02T02:00:04;9.10;99.90
37240;DHT22;23130;48.760;9.178;2023-05-02T02:02:31;9.00;99.90
37240;DHT22;23130;48.760;9.178;2023-05-02T02:04:58;8.90;99.90
37240;DHT22;23130;48.760;9.178;2023-05-02T02:07:25;8.90;99.90
37240;DHT22;23130;48.760;9.178;2023-05-02T02:09:50;8.90;99.90
37240;DHT22;23130;48.760;9.178;2023-05-02T02:20:22;8.60;99.90
37240;DHT22;23130;48.760;9.178;2023-05-02T02:22:47;8.50;99.90
37240;DHT22;23130;48.760;9.178;2023-05-02T02:25:16;8.40;99.90
37240;DHT22;23130;48.760;9.178;2023-05-02T02:27:42;8.20;99.90
37240;DHT22;23130;48.760;9.178;2023-05-02T02:30:08;8.20;99.90
37240;DHT22;23130;48.760;9.178;2023-05-02T02:32:34;8.00;99.90
37240;DHT22;23130;48.760;9.178;2023-05-02T02:35:00;8.00;99.90
37240;DHT22;23130;48.760;9.178;2023-05-02T02:37:38;7.90;99.90
37240;DHT22;23130;48.760;9.178;2023-05-02T02:43:19;7.80;99.90
37240;DHT22;23130;48.760;9.178;2023-05-02T02:46:01;7.90;99.90
37240;DHT22;23130;48.760;9.178;2023-05-02T02:48:56;7.90;99.90
37240;DHT22;23130;48.760;9.178;2023-05-02T02:51:30;7.90;99.90
37240;DHT22;23130;48.760;9.178;2023-05-02T02:54:12;7.90;99.90
37240;DHT22;23130;48.760;9.178;2023-05-02T02:56:41;7.80;99.90
37240;DHT22;23130;48.760;9.178;2023-05-02T02:59:31;7.90;99.90
37240;DHT22;23130;48.760;9.178;2023-05-02T03:02:11;7.90;99.90
37240;DHT22;23130;48.760;9.178;2023-05-02T03:04:39;7.80;99.90
37240;DHT22;23130;48.760;9.178;2023-05-02T03:07:06;7.80;99.90
37240;DHT22;23130;48.760;9.178;2023-05-02T03:09:45;7.90;99.90
37240;DHT22;23130;48.760;9.178;2023-05-02T03:12:11;7.80;99.90
37240;DHT22;23130;48.760;9.178;2023-05-02T03:14:37;7.90;99.90
37240;DHT22;23130;48.760;9.178;2023-05-02T03:17:04;7.90;99.90
37240;DHT22;23130;48.760;9.178;2023-05-02T03:19:30;7.90;99.90
37240;DHT22;23130;48.760;9.178;2023-05-02T03:21:55;8.00;99.90
37240;DHT22;23130;48.760;9.178;2023-05-02T03:24:21;8.00;99.90
37240;DHT22;23130;48.760;9.178;2023-05-02T03:26:47;8.00;99.90
37240;DHT22;23130;48.760;9.178;2023-05-02T03:29:13;8.00;99.90
37240;DHT22;23130;48.760;9.178;2023-05-02T03:31:39;8.10;99.90
37240;DHT22;23130;48.760;9.178;2023-05-02T03:34:04;8.20;99.90
37240;DHT22;23130;48.760;9.178;2023-05-02T03:36:30;8.40;99.90
37240;DHT22;23130;48.760;9.178;2023-05-02T03:38:56;8.50;99.90
37240;DHT22;23130;48.760;9.178;2023-05-02T03:41:21;8.60;99.90
37240;DHT22;23130;48.760;9.178;2023-05-02T03:43:49;8.60;99.90
37240;DHT22;23130;48.760;9.178;2023-05-02T03:46:15;8.70;99.90
37240;DHT22;23130;48.760;9.178;2023-05-02T03:48:40;8.80;99.90
37240;DHT22;23130;48.760;9.178;2023-05-02T03:51:06;8.80;99.90
37240;DHT22;23130;48.760;9.178;2023-05-02T03:53:35;8.90;99.90
37240;DHT22;23130;48.760;9.178;2023-05-02T03:56:00;8.90;99.90
37240;DHT22;23130;48.760;9.178;2023-05-02T03:58:26;8.90;99.90
37240;DHT22;23130;48.760;9.178;2023-05-02T04:00:52;9.00;99.90
37240;DHT22;23130;48.760;9.178;2023-05-02T04:03:19;9.00;99.90
37240;DHT22;23130;48.760;9.178;2023-05-02T04:05:44;9.10;99.90
37240;DHT22;23130;48.760;9.178;2023-05-02T04:08:10;9.10;99.90
37240;DHT22;23130;48.760;9.178;2023-05-02T04:10:36;9.20;99.90
37240;DHT22;23130;48.760;9.178;2023-05-02T04:13:02;9.20;99.90
37240;DHT22;23130;48.760;9.178;2023-05-02T04:15:29;9.20;99.90
37240;DHT22;23130;48.760;9.178;2023-05-02T04:17:56;9.30;99.90
37240;DHT22;23130;48.760;9.178;2023-05-02T04:20:22;9.30;99.90
37240;DHT22;23130;48.760;9.178;2023-05-02T04:22:47;9.30;99.90
37240;DHT22;23130;48.760;9.178;2023-05-02T04:25:14;9.40;99.90
37240;DHT22;23130;48.760;9.178;2023-05-02T04:27:40;9.50;99.90
37240;DHT22;23130;48.760;9.178;2023-05-02T04:30:06;9.50;99.90
37240;DHT22;23130;48.760;9.178;2023-05-02T04:32:32;9.50;99.90
37240;DHT22;23130;48.760;9.178;2023-05-02T04:34:58;9.50;99.90
37240;DHT22;23130;48.760;9.178;2023-05-02T04:37:24;9.60;99.90
37240;DHT22;23130;48.760;9.178;2023-05-02T04:39:49;9.60;99.90
37240;DHT22;23130;48.760;9.178;2023-05-02T04:42:15;9.70;99.90
37240;DHT22;23130;48.760;9.178;2023-05-02T04:44:40;9.70;99.90
37240;DHT22;23130;48.760;9.178;2023-05-02T04:47:06;9.70;99.90
37240;DHT22;23130;48.760;9.178;2023-05-02T04:49:31;9.80;99.90
37240;DHT22;23130;48.760;9.178;2023-05-02T04:51:58;9.80;99.90
37240;DHT22;23130;48.760;9.178;2023-05-02T04:54:23;9.80;99.90
37240;DHT22;23130;48.760;9.178;2023-05-02T04:56:49;9.80;99.90
37240;DHT22;23130;48.760;9.178;2023-05-02T04:59:14;9.80;99.90
37240;DHT22;23130;48.760;9.178;2023-05-02T05:01:40;9.90;99.90
37240;DHT22;23130;48.760;9.178;2023-05-02T05:04:05;9.90;99.90
37240;DHT22;23130;48.760;9.178;2023-05-02T05:06:31;10.00;99.90
37240;DHT22;23130;48.760;9.178;2023-05-02T05:08:57;10.00;99.90
37240;DHT22;23130;48.760;9.178;2023-05-02T05:11:22;10.00;99.90
37240;DHT22;23130;48.760;9.178;2023-05-02T05:13:48;10.10;99.90
37240;DHT22;23130;48.760;9.178;2023-05-02T05:16:14;10.10;99.90
37240;DHT22;23130;48.760;9.178;2023-05-02T05:18:40;10.20;99.90
37240;DHT22;23130;48.760;9.178;2023-05-02T05:21:09;10.30;99.90
37240;DHT22;23130;48.760;9.178;2023-05-02T05:23:35;10.30;99.90
37240;DHT22;23130;48.760;9.178;2023-05-02T05:26:08;10.40;99.90
37240;DHT22;23130;48.760;9.178;2023-05-02T05:28:34;10.50;99.90
37240;DHT22;23130;48.760;9.178;2023-05-02T05:31:07;10.60;99.90
37240;DHT22;23130;48.760;9.178;2023-05-02T05:33:34;10.70;99.90
37240;DHT22;23130;48.760;9.178;2023-05-02T05:36:07;10.90;99.90
37240;DHT22;23130;48.760;9.178;2023-05-02T05:38:33;11.00;99.90
37240;DHT22;23130;48.760;9.178;2023-05-02T05:40:58;11.20;99.90
37240;DHT22;23130;48.760;9.178;2023-05-02T05:43:24;11.30;99.90
37240;DHT22;23130;48.760;9.178;2023-05-02T05:45:54;11.40;99.90
37240;DHT22;23130;48.760;9.178;2023-05-02T05:48:20;11.60;99.90
37240;DHT22;23130;48.760;9.178;2023-05-02T05:50:46;11.70;99.90
37240;DHT22;23130;48.760;9.178;2023-05-02T05:53:12;11.80;99.90
37240;DHT22;23130;48.760;9.178;2023-05-02T05:55:38;11.80;99.90
37240;DHT22;23130;48.760;9.178;2023-05-02T05:58:04;11.90;99.90
37240;DHT22;23130;48.760;9.178;2023-05-02T06:00:29;11.90;99.90
37240;DHT22;23130;48.760;9.178;2023-05-02T06:02:55;11.90;99.90
37240;DHT22;23130;48.760;9.178;2023-05-02T06:05:21;11.90;99.90
37240;DHT22;23130;48.760;9.178;2023-05-02T06:07:46;11.80;99.90
37240;DHT22;23130;48.760;9.178;2023-05-02T06:10:12;11.80;99.90
37240;DHT22;23130;48.760;9.178;2023-05-02T06:12:37;11.80;99.90
37240;DHT22;23130;48.760;9.178;2023-05-02T06:15:03;12.00;99.90
37240;DHT22;23130;48.760;9.178;2023-05-02T06:17:29;12.10;99.90
37240;DHT22;23130;48.760;9.178;2023-05-02T06:19:55;12.10;99.90
37240;DHT22;23130;48.760;9.178;2023-05-02T06:22:20;12.20;99.90
37240;DHT22;23130;48.760;9.178;2023-05-02T06:24:46;12.30;99.90
37240;DHT22;23130;48.760;9.178;2023-05-02T06:27:11;12.30;99.90
37240;DHT22;23130;48.760;9.178;2023-05-02T06:29:37;12.50;99.90
37240;DHT22;23130;48.760;9.178;2023-05-02T06:32:02;12.50;99.90
37240;DHT22;23130;48.760;9.178;2023-05-02T06:34:31;12.70;99.90
37240;DHT22;23130;48.760;9.178;2023-05-02T06:36:57;12.80;99.90
37240;DHT22;23130;48.760;9.178;2023-05-02T06:39:23;13.00;99.90
37240;DHT22;23130;48.760;9.178;2023-05-02T06:41:48;13.00;99.90
37240;DHT22;23130;48.760;9.178;2023-05-02T06:44:14;13.30;99.90
37240;DHT22;23130;48.760;9.178;2023-05-02T06:46:39;13.30;99.90
37240;DHT22;23130;48.760;9.178;2023-05-02T06:49:05;13.40;99.90
37240;DHT22;23130;48.760;9.178;2023-05-02T06:51:30;13.50;99.90
37240;DHT22;23130;48.760;9.178;2023-05-02T06:53:56;13.60;99.90
37240;DHT22;23130;48.760;9.178;2023-05-02T06:56:23;13.80;99.90
37240;DHT22;23130;48.760;9.178;2023-05-02T06:58:50;13.80;99.90
37240;DHT22;23130;48.760;9.178;2023-05-02T07:01:15;13.70;99.90
37240;DHT22;23130;48.760;9.178;2023-05-02T07:03:41;13.30;99.90
37240;DHT22;23130;48.760;9.178;2023-05-02T07:06:06;13.00;99.90
37240;DHT22;23130;48.760;9.178;2023-05-02T07:08:32;13.00;99.90
37240;DHT22;23130;48.760;9.178;2023-05-02T07:10:58;12.90;99.90
37240;DHT22;23130;48.760;9.178;2023-05-02T07:13:23;12.90;99.90
37240;DHT22;23130;48.760;9.178;2023-05-02T07:15:49;12.80;99.90
37240;DHT22;23130;48.760;9.178;2023-05-02T07:18:14;12.60;99.90
37240;DHT22;23130;48.760;9.178;2023-05-02T07:20:40;12.70;99.90
37240;DHT22;23130;48.760;9.178;2023-05-02T07:23:07;12.60;99.90
37240;DHT22;23130;48.760;9.178;2023-05-02T07:25:33;12.50;99.90
37240;DHT22;23130;48.760;9.178;2023-05-02T07:27:59;12.50;99.90
37240;DHT22;23130;48.760;9.178;2023-05-02T07:30:24;12.70;99.90
37240;DHT22;23130;48.760;9.178;2023-05-02T07:32:50;12.70;99.90
37240;DHT22;23130;48.760;9.178;2023-05-02T07:35:16;12.80;99.90
37240;DHT22;23130;48.760;9.178;2023-05-02T07:37:41;12.80;99.90
37240;DHT22;23130;48.760;9.178;2023-05-02T07:40:07;12.80;99.90
37240;DHT22;23130;48.760;9.178;2023-05-02T07:42:34;12.90;99.90
37240;DHT22;23130;48.760;9.178;2023-05-02T07:45:00;13.00;99.90
37240;DHT22;23130;48.760;9.178;2023-05-02T07:47:26;13.10;99.90
37240;DHT22;23130;48.760;9.178;2023-05-02T07:49:53;13.20;99.90
37240;DHT22;23130;48.760;9.178;2023-05-02T07:52:19;13.40;99.90
37240;DHT22;23130;48.760;9.178;2023-05-02T07:54:47;13.50;99.90
37240;DHT22;23130;48.760;9.178;2023-05-02T07:57:12;13.60;99.90
37240;DHT22;23130;48.760;9.178;2023-05-02T07:59:38;13.60;99.90
37240;DHT22;23130;48.760;9.178;2023-05-02T08:02:04;13.70;99.90
37240;DHT22;23130;48.760;9.178;2023-05-02T08:04:29;13.90;99.90
37240;DHT22;23130;48.760;9.178;2023-05-02T08:06:55;13.90;99.90
37240;DHT22;23130;48.760;9.178;2023-05-02T08:09:21;13.80;99.90
37240;DHT22;23130;48.760;9.178;2023-05-02T08:11:47;13.60;99.90
37240;DHT22;23130;48.760;9.178;2023-05-02T08:14:14;13.50;99.90
37240;DHT22;23130;48.760;9.178;2023-05-02T08:16:41;13.40;99.90
37240;DHT22;23130;48.760;9.178;2023-05-02T08:19:06;13.30;99.90
37240;DHT22;23130;48.760;9.178;2023-05-02T08:21:32;13.20;99.90
37240;DHT22;23130;48.760;9.178;2023-05-02T08:24:03;13.30;99.90
37240;DHT22;23130;48.760;9.178;2023-05-02T08:26:28;13.20;99.90
37240;DHT22;23130;48.760;9.178;2023-05-02T08:28:54;13.20;99.90
37240;DHT22;23130;48.760;9.178;2023-05-02T08:31:20;13.40;99.90
37240;DHT22;23130;48.760;9.178;2023-05-02T08:33:46;13.60;99.90
37240;DHT22;23130;48.760;9.178;2023-05-02T08:36:15;13.80;99.90
37240;DHT22;23130;48.760;9.178;2023-05-02T08:38:41;14.10;99.90
37240;DHT22;23130;48.760;9.178;2023-05-02T08:41:10;14.30;99.90
37240;DHT22;23130;48.760;9.178;2023-05-02T08:43:38;14.70;99.90
37240;DHT22;23130;48.760;9.178;2023-05-02T08:46:04;15.10;99.90
37240;DHT22;23130;48.760;9.178;2023-05-02T08:48:34;15.50;99.90
37240;DHT22;23130;48.760;9.178;2023-05-02T08:51:01;15.70;99.90
37240;DHT22;23130;48.760;9.178;2023-05-02T08:53:30;16.20;99.90
37240;DHT22;23130;48.760;9.178;2023-05-02T08:55:56;16.40;99.90
37240;DHT22;23130;48.760;9.178;2023-05-02T08:58:23;16.40;99.90
37240;DHT22;23130;48.760;9.178;2023-05-02T09:00:49;16.20;99.90
37240;DHT22;23130;48.760;9.178;2023-05-02T09:03:30;16.20;99.90
37240;DHT22;23130;48.760;9.178;2023-05-02T09:08:41;16.30;99.90
37240;DHT22;23130;48.760;9.178;2023-05-02T09:11:08;16.60;99.90
37240;DHT22;23130;48.760;9.178;2023-05-02T09:13:43;16.90;99.90
37240;DHT22;23130;48.760;9.178;2023-05-02T09:16:09;17.20;99.90
37240;DHT22;23130;48.760;9.178;2023-05-02T09:18:41;17.40;99.90
37240;DHT22;23130;48.760;9.178;2023-05-02T09:21:09;17.40;99.90
37240;DHT22;23130;48.760;9.178;2023-05-02T09:23:40;17.40;99.90
37240;DHT22;23130;48.760;9.178;2023-05-02T09:29:01;17.10;99.90
37240;DHT22;23130;48.760;9.178;2023-05-02T09:31:30;16.90;99.90
37240;DHT22;23130;48.760;9.178;2023-05-02T09:34:17;17.00;99.90
37240;DHT22;23130;48.760;9.178;2023-05-02T09:36:49;17.50;99.90
37240;DHT22;23130;48.760;9.178;2023-05-02T09:39:20;17.80;99.90
37240;DHT22;23130;48.760;9.178;2023-05-02T09:41:46;17.80;99.90
37240;DHT22;23130;48.760;9.178;2023-05-02T09:44:17;18.00;99.90
37240;DHT22;23130;48.760;9.178;2023-05-02T09:46:50;18.00;99.90
37240;DHT22;23130;48.760;9.178;2023-05-02T09:49:16;18.20;99.90
37240;DHT22;23130;48.760;9.178;2023-05-02T09:51:44;18.20;99.90
37240;DHT22;23130;48.760;9.178;2023-05-02T09:54:11;18.20;99.90
37240;DHT22;23130;48.760;9.178;2023-05-02T09:56:55;18.50;99.90
37240;DHT22;23130;48.760;9.178;2023-05-02T09:59:22;18.40;99.90
37240;DHT22;23130;48.760;9.178;2023-05-02T10:01:58;18.90;99.90
37240;DHT22;23130;48.760;9.178;2023-05-02T10:04:25;18.70;99.90
37240;DHT22;23130;48.760;9.178;2023-05-02T10:06:52;18.30;99.90
37240;DHT22;23130;48.760;9.178;2023-05-02T10:09:19;17.90;99.90
37240;DHT22;23130;48.760;9.178;2023-05-02T10:11:46;17.70;99.90
37240;DHT22;23130;48.760;9.178;2023-05-02T10:14:15;17.80;99.90
37240;DHT22;23130;48.760;9.178;2023-05-02T10:17:09;17.60;99.90
37240;DHT22;23130;48.760;9.178;2023-05-02T10:19:59;17.60;99.90
37240;DHT22;23130;48.760;9.178;2023-05-02T10:22:25;17.80;99.90
37240;DHT22;23130;48.760;9.178;2023-05-02T10:24:52;17.70;99.90
37240;DHT22;23130;48.760;9.178;2023-05-02T10:27:18;17.40;99.90
37240;DHT22;23130;48.760;9.178;2023-05-02T10:29:45;17.20;99.90
37240;DHT22;23130;48.760;9.178;2023-05-02T10:32:12;17.10;99.90
37240;DHT22;23130;48.760;9.178;2023-05-02T10:34:39;17.00;99.90
37240;DHT22;23130;48.760;9.178;2023-05-02T10:37:05;17.00;99.90
37240;DHT22;23130;48.760;9.178;2023-05-02T10:39:31;17.10;99.90
37240;DHT22;23130;48.760;9.178;2023-05-02T10:41:58;17.20;99.90
37240;DHT22;23130;48.760;9.178;2023-05-02T10:44:45;17.50;99.90
37240;DHT22;23130;48.760;9.178;2023-05-02T10:47:18;18.00;99.90
37240;DHT22;23130;48.760;9.178;2023-05-02T10:49:59;18.00;99.90
37240;DHT22;23130;48.760;9.178;2023-05-02T10:52:29;18.00;99.90
37240;DHT22;23130;48.760;9.178;2023-05-02T10:55:19;17.90;99.90
37240;DHT22;23130;48.760;9.178;2023-05-02T11:00:28;18.30;99.90
37240;DHT22;23130;48.760;9.178;2023-05-02T11:02:54;18.40;99.90
37240;DHT22;23130;48.760;9.178;2023-05-02T11:05:21;18.30;99.90
37240;DHT22;23130;48.760;9.178;2023-05-02T11:07:48;18.00;99.90
37240;DHT22;23130;48.760;9.178;2023-05-02T11:10:24;17.90;99.90
37240;DHT22;23130;48.760;9.178;2023-05-02T11:12:54;17.90;99.90
37240;DHT22;23130;48.760;9.178;2023-05-02T11:18:03;18.60;99.90
37240;DHT22;23130;48.760;9.178;2023-05-02T11:20:35;18.60;99.90
37240;DHT22;23130;48.760;9.178;2023-05-02T11:26:19;19.00;99.90
37240;DHT22;23130;48.760;9.178;2023-05-02T11:28:46;19.40;99.90
37240;DHT22;23130;48.760;9.178;2023-05-02T11:34:00;19.30;99.90
37240;DHT22;23130;48.760;9.178;2023-05-02T11:36:33;18.70;99.90
37240;DHT22;23130;48.760;9.178;2023-05-02T11:39:00;18.40;99.90
37240;DHT22;23130;48.760;9.178;2023-05-02T11:41:39;18.00;99.90
37240;DHT22;23130;48.760;9.178;2023-05-02T11:44:05;17.90;99.90
37240;DHT22;23130;48.760;9.178;2023-05-02T11:46:31;18.00;99.90
37240;DHT22;23130;48.760;9.178;2023-05-02T11:48:56;18.10;99.90
37240;DHT22;23130;48.760;9.178;2023-05-02T11:51:22;18.40;99.90
37240;DHT22;23130;48.760;9.178;2023-05-02T11:53:48;18.50;99.90
37240;DHT22;23130;48.760;9.178;2023-05-02T11:56:14;18.60;99.90
37240;DHT22;23130;48.760;9.178;2023-05-02T11:58:40;18.50;99.90
37240;DHT22;23130;48.760;9.178;2023-05-02T12:01:12;18.20;99.90
37240;DHT22;23130;48.760;9.178;2023-05-02T12:03:38;18.20;99.90
37240;DHT22;23130;48.760;9.178;2023-05-02T12:06:12;18.00;99.90
37240;DHT22;23130;48.760;9.178;2023-05-02T12:08:38;18.10;99.90
37240;DHT22;23130;48.760;9.178;2023-05-02T12:11:04;18.10;99.90
37240;DHT22;23130;48.760;9.178;2023-05-02T12:13:31;17.80;99.90
37240;DHT22;23130;48.760;9.178;2023-05-02T12:15:57;17.80;99.90
37240;DHT22;23130;48.760;9.178;2023-05-02T12:18:24;17.70;99.90
37240;DHT22;23130;48.760;9.178;2023-05-02T12:20:52;17.90;99.90
37240;DHT22;23130;48.760;9.178;2023-05-02T12:23:23;18.00;99.90
37240;DHT22;23130;48.760;9.178;2023-05-02T12:25:49;18.20;99.90
37240;DHT22;23130;48.760;9.178;2023-05-02T12:28:17;18.50;99.90
37240;DHT22;23130;48.760;9.178;2023-05-02T12:30:47;18.70;99.90
37240;DHT22;23130;48.760;9.178;2023-05-02T12:33:13;19.20;99.90
37240;DHT22;23130;48.760;9.178;2023-05-02T12:35:38;19.60;99.90
37240;DHT22;23130;48.760;9.178;2023-05-02T12:38:17;19.90;99.90
37240;DHT22;23130;48.760;9.178;2023-05-02T12:40:52;20.00;99.90
37240;DHT22;23130;48.760;9.178;2023-05-02T12:43:19;20.10;99.90
37240;DHT22;23130;48.760;9.178;2023-05-02T12:45:46;19.50;99.90
37240;DHT22;23130;48.760;9.178;2023-05-02T12:48:26;18.70;99.90
37240;DHT22;23130;48.760;9.178;2023-05-02T12:50:53;18.10;99.90
37240;DHT22;23130;48.760;9.178;2023-05-02T12:53:54;17.90;99.90
37240;DHT22;23130;48.760;9.178;2023-05-02T12:56:19;17.90;99.90
37240;DHT22;23130;48.760;9.178;2023-05-02T12:58:47;18.00;99.90
37240;DHT22;23130;48.760;9.178;2023-05-02T13:01:13;18.10;99.90
37240;DHT22;23130;48.760;9.178;2023-05-02T13:03:40;18.20;99.90
37240;DHT22;23130;48.760;9.178;2023-05-02T13:06:06;17.90;99.90
37240;DHT22;23130;48.760;9.178;2023-05-02T13:08:32;17.60;99.90
37240;DHT22;23130;48.760;9.178;2023-05-02T13:10:59;17.40;99.90
37240;DHT22;23130;48.760;9.178;2023-05-02T13:13:24;17.40;99.90
37240;DHT22;23130;48.760;9.178;2023-05-02T13:15:50;17.30;99.90
37240;DHT22;23130;48.760;9.178;2023-05-02T13:18:16;17.50;99.90
37240;DHT22;23130;48.760;9.178;2023-05-02T13:20:41;17.90;99.90
37240;DHT22;23130;48.760;9.178;2023-05-02T13:23:07;17.80;99.90
37240;DHT22;23130;48.760;9.178;2023-05-02T13:25:32;17.70;99.90
37240;DHT22;23130;48.760;9.178;2023-05-02T13:27:58;17.80;99.90
37240;DHT22;23130;48.760;9.178;2023-05-02T13:30:23;17.60;99.90
37240;DHT22;23130;48.760;9.178;2023-05-02T13:32:49;17.60;99.90
37240;DHT22;23130;48.760;9.178;2023-05-02T13:35:15;17.50;99.90
37240;DHT22;23130;48.760;9.178;2023-05-02T13:37:40;17.60;99.90
37240;DHT22;23130;48.760;9.178;2023-05-02T13:40:07;17.80;99.90
37240;DHT22;23130;48.760;9.178;2023-05-02T13:42:32;17.80;99.90
37240;DHT22;23130;48.760;9.178;2023-05-02T13:44:58;18.10;99.90
37240;DHT22;23130;48.760;9.178;2023-05-02T13:47:24;18.10;99.90
37240;DHT22;23130;48.760;9.178;2023-05-02T13:49:50;18.00;99.90
37240;DHT22;23130;48.760;9.178;2023-05-02T13:52:16;18.10;99.90
37240;DHT22;23130;48.760;9.178;2023-05-02T13:54:41;18.50;99.90
37240;DHT22;23130;48.760;9.178;2023-05-02T13:57:07;18.80;99.90
37240;DHT22;23130;48.760;9.178;2023-05-02T13:59:32;19.00;99.90
37240;DHT22;23130;48.760;9.178;2023-05-02T14:01:58;19.10;99.90
37240;DHT22;23130;48.760;9.178;2023-05-02T14:04:23;19.10;99.90
37240;DHT22;23130;48.760;9.178;2023-05-02T14:06:49;18.90;99.90
37240;DHT22;23130;48.760;9.178;2023-05-02T14:09:15;18.80;99.90
37240;DHT22;23130;48.760;9.178;2023-05-02T14:11:41;18.80;99.90
37240;DHT22;23130;48.760;9.178;2023-05-02T14:14:08;18.70;99.90
37240;DHT22;23130;48.760;9.178;2023-05-02T14:16:37;18.90;99.90
37240;DHT22;23130;48.760;9.178;2023-05-02T14:19:02;19.00;99.90
37240;DHT22;23130;48.760;9.178;2023-05-02T14:21:28;18.80;99.90
37240;DHT22;23130;48.760;9.178;2023-05-02T14:23:53;18.70;99.90
37240;DHT22;23130;48.760;9.178;2023-05-02T14:26:19;18.60;99.90
37240;DHT22;23130;48.760;9.178;2023-05-02T14:28:44;18.90;99.90
37240;DHT22;23130;48.760;9.178;2023-05-02T14:31:10;18.90;99.90
37240;DHT22;23130;48.760;9.178;2023-05-02T14:33:36;18.80;99.90
37240;DHT22;23130;48.760;9.178;2023-05-02T14:36:02;18.70;99.90
37240;DHT22;23130;48.760;9.178;2023-05-02T14:38:28;18.70;99.90
37240;DHT22;23130;48.760;9.178;2023-05-02T14:40:53;18.70;99.90
37240;DHT22;23130;48.760;9.178;2023-05-02T14:43:19;18.70;99.90
37240;DHT22;23130;48.760;9.178;2023-05-02T14:45:45;18.80;99.90
37240;DHT22;23130;48.760;9.178;2023-05-02T14:48:13;18.90;99.90
37240;DHT22;23130;48.760;9.178;2023-05-02T14:50:41;18.90;99.90
37240;DHT22;23130;48.760;9.178;2023-05-02T14:53:06;18.10;99.90
37240;DHT22;23130;48.760;9.178;2023-05-02T14:55:35;17.80;99.90
37240;DHT22;23130;48.760;9.178;2023-05-02T14:58:01;17.80;99.90
37240;DHT22;23130;48.760;9.178;2023-05-02T15:00:26;18.00;99.90
37240;DHT22;23130;48.760;9.178;2023-05-02T15:02:52;18.10;99.90
37240;DHT22;23130;48.760;9.178;2023-05-02T15:05:18;18.00;99.90
37240;DHT22;23130;48.760;9.178;2023-05-02T15:07:43;18.00;99.90
37240;DHT22;23130;48.760;9.178;2023-05-02T15:10:09;18.30;99.90
37240;DHT22;23130;48.760;9.178;2023-05-02T15:12:35;18.40;99.90
37240;DHT22;23130;48.760;9.178;2023-05-02T15:15:00;18.50;99.90
37240;DHT22;23130;48.760;9.178;2023-05-02T15:17:26;18.50;99.90
37240;DHT22;23130;48.760;9.178;2023-05-02T15:19:51;18.30;99.90
37240;DHT22;23130;48.760;9.178;2023-05-02T15:22:17;18.10;99.90
37240;DHT22;23130;48.760;9.178;2023-05-02T15:24:42;17.80;99.90
37240;DHT22;23130;48.760;9.178;2023-05-02T15:27:08;17.70;99.90
37240;DHT22;23130;48.760;9.178;2023-05-02T15:29:34;17.70;99.90
37240;DHT22;23130;48.760;9.178;2023-05-02T15:31:59;17.70;99.90
37240;DHT22;23130;48.760;9.178;2023-05-02T15:34:26;17.70;99.90
37240;DHT22;23130;48.760;9.178;2023-05-02T15:36:52;17.60;99.90
37240;DHT22;23130;48.760;9.178;2023-05-02T15:39:17;17.50;99.90
37240;DHT22;23130;48.760;9.178;2023-05-02T15:41:43;17.50;99.90
37240;DHT22;23130;48.760;9.178;2023-05-02T15:44:12;17.70;99.90
37240;DHT22;23130;48.760;9.178;2023-05-02T15:46:37;17.70;99.90
37240;DHT22;23130;48.760;9.178;2023-05-02T15:49:05;17.50;99.90
37240;DHT22;23130;48.760;9.178;2023-05-02T15:51:30;17.30;99.90
37240;DHT22;23130;48.760;9.178;2023-05-02T15:53:56;17.10;99.90
37240;DHT22;23130;48.760;9.178;2023-05-02T15:56:21;17.00;99.90
37240;DHT22;23130;48.760;9.178;2023-05-02T15:58:47;17.00;99.90
37240;DHT22;23130;48.760;9.178;2023-05-02T16:01:13;17.00;99.90
37240;DHT22;23130;48.760;9.178;2023-05-02T16:03:38;16.80;99.90
37240;DHT22;23130;48.760;9.178;2023-05-02T16:06:04;16.60;99.90
37240;DHT22;23130;48.760;9.178;2023-05-02T16:08:31;16.70;99.90
37240;DHT22;23130;48.760;9.178;2023-05-02T16:10:57;16.80;99.90
37240;DHT22;23130;48.760;9.178;2023-05-02T16:13:25;16.90;99.90
37240;DHT22;23130;48.760;9.178;2023-05-02T16:15:51;17.00;99.90
37240;DHT22;23130;48.760;9.178;2023-05-02T16:18:17;17.10;99.90